Time;durP1;ratioP1;P1;durP2;ratioP2;P2;SDS_P1;SDS_P2;PMS_P1;PMS_P2;Temp;Humidity;BMP_temperature;BMP_pressure;BME280_temperature;BME280_humidity;BME280_pressure;Samples;Min_cycle;Max_cycle;Signal;HPM_P1;HPM_P2
2022/12/25 00:00:01;;;;;;;;;;;;;;;5.97;100.00;98884.16;4274334;33;20003;-73
2022/12/25 00:02:28;;;;;;;;;;;;;;;6.04;100.00;98882.22;4275020;33;19953;-73
2022/12/25 00:04:55;;;;;;;;;;;;;;;5.52;100.00;98892.38;4278491;33;20299;-72
2022/12/25 00:07:21;;;;;;;;;;;;;;;5.95;100.00;98899.56;4280357;33;19988;-75
2022/12/25 00:09:47;;;;;;;;;;;;;;;5.86;100.00;98900.91;4280422;33;19941;-73
2022/12/25 00:12:13;;;;;;;;;;;;;;;5.70;100.00;98903.13;4280436;33;19942;-73
2022/12/25 00:14:39;;;;;;;;;;;;;;;6.02;100.00;98899.53;4280439;33;20049;-73
2022/12/25 00:17:05;;;;;;;;;;;;;;;6.05;100.00;98904.41;4278245;33;20000;-72
2022/12/25 00:19:32;;;;;;;;;;;;;;;5.76;100.00;98912.09;4289643;33;19994;-73
2022/12/25 00:21:58;;;;;;;;;;;;;;;5.68;100.00;98910.53;4286229;33;20056;-73
2022/12/25 00:24:24;;;;;;;;;;;;;;;5.84;100.00;98925.19;4280576;33;19959;-73
2022/12/25 00:26:50;;;;;;;;;;;;;;;5.92;100.00;98922.22;4280259;33;19959;-73
2022/12/25 00:29:17;;;;;;;;;;;;;;;6.04;100.00;98930.34;4280321;33;19951;-72
2022/12/25 00:31:43;;;;;;;;;;;;;;;5.94;100.00;98932.69;4279629;33;19955;-74
2022/12/25 00:34:09;;;;;;;;;;;;;;;5.81;100.00;98937.12;4294843;33;19975;-73
2022/12/25 00:36:35;;;;;;;;;;;;;;;5.77;100.00;98954.63;4294525;33;19965;-73
2022/12/25 00:39:02;;;;;;;;;;;;;;;5.77;100.00;98951.13;4294761;33;19948;-73
2022/12/25 00:44:13;;;;;;;;;;;;;;;6.09;100.00;98954.53;4293548;33;20368;-72
2022/12/25 00:46:39;;;;;;;;;;;;;;;5.93;100.00;98971.13;4305147;33;20371;-74
2022/12/25 00:49:06;;;;;;;;;;;;;;;6.04;100.00;98957.06;4311316;33;20298;-73
2022/12/25 00:51:32;;;;;;;;;;;;;;;6.05;100.00;98964.06;4308841;33;19984;-72
2022/12/25 00:53:59;;;;;;;;;;;;;;;6.35;100.00;98965.97;4311129;33;19956;-73
2022/12/25 00:56:25;;;;;;;;;;;;;;;6.28;100.00;98957.22;4311081;33;19940;-73
2022/12/25 00:58:52;;;;;;;;;;;;;;;6.03;100.00;98966.13;4311253;33;19948;-74
2022/12/25 03:07:23;;;;;;;;;;;;;;;7.10;100.00;99013.00;4309249;33;19963;-74
2022/12/25 03:12:58;;;;;;;;;;;;;;;7.09;100.00;99022.06;4279441;33;19959;-73
2022/12/25 03:18:12;;;;;;;;;;;;;;;6.91;100.00;99031.78;4279646;33;19949;-73
2022/12/25 03:29:05;;;;;;;;;;;;;;;6.50;100.00;99038.63;4276677;33;20013;-73
2022/12/25 03:31:39;;;;;;;;;;;;;;;6.45;100.00;99038.50;4278628;33;19971;-73
2022/12/25 04:38:13;;;;;;;;;;;;;;;6.91;100.00;99096.00;4311250;33;19952;-74
2022/12/25 04:40:39;;;;;;;;;;;;;;;6.89;100.00;99092.75;4311067;33;19958;-72
2022/12/25 04:43:05;;;;;;;;;;;;;;;6.99;100.00;99096.75;4304291;33;19948;-73
2022/12/25 04:45:32;;;;;;;;;;;;;;;7.08;100.00;99098.06;4293654;33;19963;-74
2022/12/25 04:47:59;;;;;;;;;;;;;;;7.14;100.00;99099.06;4293862;33;19961;-74
2022/12/25 04:50:25;;;;;;;;;;;;;;;6.72;100.00;99107.78;4294685;33;20265;-74
2022/12/25 04:52:52;;;;;;;;;;;;;;;7.00;100.00;99109.09;4282166;33;20361;-74
2022/12/25 04:55:18;;;;;;;;;;;;;;;7.03;100.00;99108.66;4292325;33;19949;-75
2022/12/25 04:57:44;;;;;;;;;;;;;;;6.87;100.00;99116.22;4266164;33;20005;-74
2022/12/25 05:00:10;;;;;;;;;;;;;;;6.67;100.00;99103.09;4264738;33;19981;-74
2022/12/25 05:02:36;;;;;;;;;;;;;;;6.68;100.00;99101.22;4264824;33;19946;-74
2022/12/25 05:05:03;;;;;;;;;;;;;;;6.51;100.00;99106.31;4265581;33;19946;-74
2022/12/25 05:07:29;;;;;;;;;;;;;;;6.61;100.00;99105.84;4249474;33;19942;-74
2022/12/25 05:09:55;;;;;;;;;;;;;;;6.69;100.00;99102.88;4250955;33;19989;-72
2022/12/25 05:12:21;;;;;;;;;;;;;;;6.79;100.00;99100.47;4251961;33;20390;-74
2022/12/25 05:14:48;;;;;;;;;;;;;;;6.87;100.00;99105.53;4250841;33;20355;-73
2022/12/25 05:17:14;;;;;;;;;;;;;;;6.88;100.00;99101.81;4260982;33;19981;-72
2022/12/25 05:19:41;;;;;;;;;;;;;;;6.78;100.00;99106.88;4262502;33;20413;-72
2022/12/25 05:22:07;;;;;;;;;;;;;;;6.47;100.00;99111.31;4261326;33;19985;-73
2022/12/25 05:24:33;;;;;;;;;;;;;;;6.51;100.00;99117.84;4258807;33;19950;-73
2022/12/25 05:26:59;;;;;;;;;;;;;;;6.13;100.00;99116.13;4251620;33;20315;-73
2022/12/25 05:29:26;;;;;;;;;;;;;;;6.52;100.00;99116.81;4251692;33;19962;-74
2022/12/25 05:31:52;;;;;;;;;;;;;;;6.54;100.00;99138.81;4249281;33;20123;-73
2022/12/25 05:34:18;;;;;;;;;;;;;;;6.54;100.00;99128.12;4255535;33;19958;-73
2022/12/25 05:36:44;;;;;;;;;;;;;;;6.65;100.00;99133.75;4251621;33;19946;-73
2022/12/25 05:39:10;;;;;;;;;;;;;;;6.40;100.00;99131.97;4275132;33;19989;-73
2022/12/25 05:41:36;;;;;;;;;;;;;;;6.52;100.00;99132.84;4290671;33;20332;-73
2022/12/25 05:44:03;;;;;;;;;;;;;;;6.68;100.00;99126.09;4288386;33;19990;-74
2022/12/25 05:46:29;;;;;;;;;;;;;;;6.61;100.00;99116.53;4283675;33;19971;-73
2022/12/25 05:48:55;;;;;;;;;;;;;;;6.57;100.00;99142.09;4282525;33;20135;-73
2022/12/25 05:51:29;;;;;;;;;;;;;;;6.47;100.00;99135.38;4266613;33;19959;-73
2022/12/25 05:53:55;;;;;;;;;;;;;;;6.33;100.00;99136.53;4279448;33;19982;-73
2022/12/25 05:56:22;;;;;;;;;;;;;;;6.69;100.00;99137.66;4280949;33;19947;-73
2022/12/25 05:58:48;;;;;;;;;;;;;;;6.74;100.00;99148.50;4282266;33;20013;-73
2022/12/25 06:01:16;;;;;;;;;;;;;;;6.67;100.00;99153.09;4280740;33;19945;-73
2022/12/25 06:03:42;;;;;;;;;;;;;;;6.67;100.00;99142.38;4281184;33;19950;-74
2022/12/25 06:06:08;;;;;;;;;;;;;;;6.29;100.00;99146.06;4281279;33;19960;-73
2022/12/25 06:08:35;;;;;;;;;;;;;;;6.45;100.00;99145.47;4280372;33;19965;-73
2022/12/25 06:11:03;;;;;;;;;;;;;;;6.36;100.00;99141.44;4282251;33;19997;-73
2022/12/25 06:13:29;;;;;;;;;;;;;;;6.64;100.00;99151.69;4282032;33;19967;-73
2022/12/25 06:15:55;;;;;;;;;;;;;;;6.51;100.00;99149.97;4282262;33;19946;-73
2022/12/25 06:18:22;;;;;;;;;;;;;;;6.35;100.00;99158.53;4278889;33;19978;-73
2022/12/25 06:20:48;;;;;;;;;;;;;;;6.42;100.00;99167.31;4281534;33;19958;-73
2022/12/25 06:23:14;;;;;;;;;;;;;;;6.76;100.00;99178.53;4307984;33;19995;-73
2022/12/25 06:25:40;;;;;;;;;;;;;;;6.57;100.00;99168.84;4313158;33;20402;-73
2022/12/25 06:28:07;;;;;;;;;;;;;;;6.74;100.00;99175.25;4312888;33;20368;-73
2022/12/25 06:30:39;;;;;;;;;;;;;;;6.66;100.00;99178.22;4312342;33;20010;-73
2022/12/25 06:33:06;;;;;;;;;;;;;;;6.67;100.00;99187.88;4306567;33;20304;-73
2022/12/25 06:35:32;;;;;;;;;;;;;;;6.82;100.00;99188.34;4305144;33;19963;-73
2022/12/25 06:37:58;;;;;;;;;;;;;;;6.93;100.00;99188.69;4295816;33;19947;-74
2022/12/25 06:40:24;;;;;;;;;;;;;;;6.54;100.00;99197.66;4293504;33;20323;-74
2022/12/25 06:42:51;;;;;;;;;;;;;;;6.61;100.00;99207.50;4295451;33;20026;-73
2022/12/25 06:45:17;;;;;;;;;;;;;;;6.65;100.00;99214.03;4296122;33;19944;-73
2022/12/25 06:47:43;;;;;;;;;;;;;;;6.26;100.00;99211.47;4280226;33;19941;-73
2022/12/25 06:50:09;;;;;;;;;;;;;;;6.25;100.00;99212.50;4281492;33;20256;-73
2022/12/25 06:52:35;;;;;;;;;;;;;;;6.29;100.00;99220.91;4279581;33;19967;-72
2022/12/25 06:55:02;;;;;;;;;;;;;;;6.43;100.00;99226.97;4281875;33;20001;-73
2022/12/25 06:57:28;;;;;;;;;;;;;;;6.43;100.00;99222.47;4296259;33;19936;-73
2022/12/25 06:59:54;;;;;;;;;;;;;;;6.71;100.00;99223.87;4267389;33;19981;-73
2022/12/25 07:02:21;;;;;;;;;;;;;;;6.39;100.00;99236.47;4265648;33;19967;-73
2022/12/25 07:04:47;;;;;;;;;;;;;;;6.42;100.00;99258.25;4265009;33;19956;-73
2022/12/25 07:07:13;;;;;;;;;;;;;;;6.45;100.00;99259.69;4266888;33;19949;-74
2022/12/25 07:09:41;;;;;;;;;;;;;;;6.23;100.00;99264.56;4277872;33;19937;-74
2022/12/25 07:12:19;;;;;;;;;;;;;;;6.51;100.00;99264.16;4274973;33;20276;-74
2022/12/25 07:14:49;;;;;;;;;;;;;;;6.56;100.00;99269.69;4279452;33;20000;-73
2022/12/25 07:17:15;;;;;;;;;;;;;;;6.63;100.00;99265.09;4279340;33;20827;-74
2022/12/25 07:19:41;;;;;;;;;;;;;;;6.74;100.00;99266.25;4281351;33;19992;-73
2022/12/25 07:22:08;;;;;;;;;;;;;;;6.68;100.00;99272.47;4281119;33;19937;-74
2022/12/25 07:24:34;;;;;;;;;;;;;;;6.87;100.00;99282.19;4280043;33;19956;-73
2022/12/25 07:27:00;;;;;;;;;;;;;;;6.71;100.00;99293.44;4251721;33;20628;-73
2022/12/25 07:29:28;;;;;;;;;;;;;;;6.88;100.00;99283.84;4249811;33;19959;-74
2022/12/25 07:32:05;;;;;;;;;;;;;;;6.55;100.00;99287.56;4283908;33;19977;-73
2022/12/25 07:34:38;;;;;;;;;;;;;;;6.79;100.00;99287.00;4286357;33;19973;-73
2022/12/25 07:37:10;;;;;;;;;;;;;;;6.75;100.00;99283.94;4288893;33;20665;-73
2022/12/25 07:39:40;;;;;;;;;;;;;;;6.53;100.00;99296.88;4289172;33;19967;-73
2022/12/25 07:42:16;;;;;;;;;;;;;;;6.64;100.00;99293.50;4283949;33;20279;-73
2022/12/25 07:44:54;;;;;;;;;;;;;;;6.47;100.00;99303.91;4251833;33;20769;-73
2022/12/25 07:47:20;;;;;;;;;;;;;;;6.72;100.00;99300.44;4251778;33;19968;-72
2022/12/25 07:49:46;;;;;;;;;;;;;;;6.67;100.00;99297.56;4251426;33;19959;-73
2022/12/25 07:52:12;;;;;;;;;;;;;;;6.59;100.00;99300.53;4236653;33;19938;-73
2022/12/25 07:54:38;;;;;;;;;;;;;;;6.59;100.00;99289.81;4238413;33;20089;-73
2022/12/25 07:57:07;;;;;;;;;;;;;;;6.73;100.00;99299.37;4239678;33;19956;-73
2022/12/25 07:59:33;;;;;;;;;;;;;;;6.86;100.00;99301.97;4252418;33;19954;-73
2022/12/25 08:01:59;;;;;;;;;;;;;;;6.70;100.00;99297.16;4238715;33;20053;-75
2022/12/25 08:04:26;;;;;;;;;;;;;;;6.81;100.00;99299.16;4227206;33;20013;-73
2022/12/25 08:06:52;;;;;;;;;;;;;;;6.77;100.00;99311.31;4228378;33;19994;-75
2022/12/25 08:09:18;;;;;;;;;;;;;;;6.68;100.00;99315.28;4209120;34;19943;-75
2022/12/25 08:11:48;;;;;;;;;;;;;;;6.63;100.00;99315.94;4222287;33;19960;-75
2022/12/25 08:14:14;;;;;;;;;;;;;;;6.78;100.00;99310.28;4223194;33;19943;-75
2022/12/25 08:16:41;;;;;;;;;;;;;;;7.02;100.00;99305.13;4204298;34;20427;-73
2022/12/25 08:19:07;;;;;;;;;;;;;;;6.98;100.00;99314.66;4208391;34;20003;-73
2022/12/25 08:21:34;;;;;;;;;;;;;;;7.09;100.00;99312.06;4204645;34;19947;-73
2022/12/25 08:24:02;;;;;;;;;;;;;;;7.24;100.00;99314.41;4193757;34;19961;-74
2022/12/25 08:26:28;;;;;;;;;;;;;;;6.94;100.00;99319.62;4168715;34;19962;-72
2022/12/25 08:28:55;;;;;;;;;;;;;;;6.74;100.00;99325.13;4174646;34;20006;-76
2022/12/25 08:31:23;;;;;;;;;;;;;;;6.72;100.00;99338.72;4175030;34;19974;-77
2022/12/25 08:33:50;;;;;;;;;;;;;;;6.87;100.00;99325.00;4327912;28;20239;-73
2022/12/25 08:36:17;;;;;;;;;;;;;;;6.87;100.00;99330.37;4213989;33;19946;-76
2022/12/25 08:38:43;;;;;;;;;;;;;;;7.16;100.00;99341.44;4224875;33;19947;-77
2022/12/25 08:41:11;;;;;;;;;;;;;;;7.34;100.00;99323.78;4219379;34;20304;-74
2022/12/25 08:43:37;;;;;;;;;;;;;;;7.38;100.00;99325.78;4222606;34;19943;-75
2022/12/25 08:46:03;;;;;;;;;;;;;;;6.75;100.00;99337.47;4217762;34;20306;-74
2022/12/25 08:48:29;;;;;;;;;;;;;;;7.08;100.00;99341.72;4227898;33;20334;-74
2022/12/25 08:50:56;;;;;;;;;;;;;;;6.95;100.00;99341.84;4226680;33;19946;-73
2022/12/25 08:53:22;;;;;;;;;;;;;;;6.97;100.00;99339.78;4229969;33;20073;-74
2022/12/25 08:55:48;;;;;;;;;;;;;;;7.10;100.00;99345.03;4232351;33;19960;-75
2022/12/25 08:58:15;;;;;;;;;;;;;;;7.27;100.00;99343.44;4231796;33;19935;-75
2022/12/25 09:00:41;;;;;;;;;;;;;;;7.38;100.00;99347.22;4234601;33;19965;-76
2022/12/25 09:03:08;;;;;;;;;;;;;;;7.28;100.00;99347.72;4236303;33;20482;-75
2022/12/25 09:05:35;;;;;;;;;;;;;;;7.49;100.00;99342.19;4236962;33;19970;-75
2022/12/25 09:08:01;;;;;;;;;;;;;;;7.36;100.00;99345.81;4230946;33;19934;-75
2022/12/25 09:10:27;;;;;;;;;;;;;;;7.42;100.00;99359.16;4236149;33;19949;-74
2022/12/25 09:12:53;;;;;;;;;;;;;;;7.61;100.00;99367.19;4257988;33;19945;-75
2022/12/25 09:15:19;;;;;;;;;;;;;;;7.34;100.00;99361.28;4265602;33;19958;-76
2022/12/25 09:17:46;;;;;;;;;;;;;;;7.26;100.00;99360.53;4266118;33;19972;-74
2022/12/25 09:20:12;;;;;;;;;;;;;;;7.29;100.00;99348.53;4266339;33;20008;-73
2022/12/25 09:22:38;;;;;;;;;;;;;;;7.28;100.00;99353.09;4265002;33;20337;-74
2022/12/25 09:25:05;;;;;;;;;;;;;;;7.27;100.00;99348.78;4267766;33;19953;-73
2022/12/25 09:27:31;;;;;;;;;;;;;;;7.45;100.00;99352.50;4265815;33;19984;-74
2022/12/25 09:29:57;;;;;;;;;;;;;;;7.30;100.00;99354.75;4278985;33;20719;-74
2022/12/25 09:32:23;;;;;;;;;;;;;;;7.48;100.00;99362.78;4297315;33;19982;-74
2022/12/25 09:34:49;;;;;;;;;;;;;;;7.49;100.00;99361.75;4295943;33;19949;-74
2022/12/25 09:37:15;;;;;;;;;;;;;;;7.63;100.00;99354.41;4297930;33;20236;-74
2022/12/25 09:39:42;;;;;;;;;;;;;;;7.43;100.00;99365.31;4275509;33;19959;-73
2022/12/25 09:42:12;;;;;;;;;;;;;;;7.70;100.00;99360.50;4278731;33;20801;-74
2022/12/25 09:44:43;;;;;;;;;;;;;;;7.76;100.00;99354.25;4279070;33;19941;-74
2022/12/25 09:47:12;;;;;;;;;;;;;;;7.50;100.00;99358.06;4282207;33;19960;-74
2022/12/25 09:49:47;;;;;;;;;;;;;;;7.36;100.00;99351.19;4280651;33;19959;-74
2022/12/25 09:52:22;;;;;;;;;;;;;;;7.24;100.00;99357.25;4280053;33;20033;-75
2022/12/25 09:54:56;;;;;;;;;;;;;;;7.54;100.00;99358.41;4276480;33;19965;-74
2022/12/25 09:57:23;;;;;;;;;;;;;;;7.55;100.00;99357.38;4264155;33;19997;-75
2022/12/25 09:59:50;;;;;;;;;;;;;;;7.71;100.00;99358.66;4264728;33;19969;-75
2022/12/25 10:02:28;;;;;;;;;;;;;;;7.48;100.00;99362.78;4265901;33;20015;-74
2022/12/25 10:04:57;;;;;;;;;;;;;;;7.46;100.00;99365.69;4265770;33;20328;-75
2022/12/25 10:07:29;;;;;;;;;;;;;;;7.56;100.00;99373.25;4263070;33;19958;-75
2022/12/25 10:09:58;;;;;;;;;;;;;;;7.53;100.00;99364.81;4267501;33;19953;-75
2022/12/25 10:12:35;;;;;;;;;;;;;;;7.69;100.00;99368.78;4278135;33;20310;-74
2022/12/25 10:15:11;;;;;;;;;;;;;;;7.60;100.00;99368.25;4264837;33;20005;-74
2022/12/25 10:17:36;;;;;;;;;;;;;;;7.76;100.00;99358.81;4280274;33;19956;-74
2022/12/25 10:20:15;;;;;;;;;;;;;;;7.84;100.00;99361.19;4281932;33;19959;-74
2022/12/25 10:22:44;;;;;;;;;;;;;;;7.58;100.00;99365.78;4279520;33;19980;-74
2022/12/25 10:25:15;;;;;;;;;;;;;;;7.85;100.00;99356.62;4280922;33;19965;-73
2022/12/25 10:27:42;;;;;;;;;;;;;;;7.94;100.00;99356.09;4282560;33;19971;-73
2022/12/25 10:30:14;;;;;;;;;;;;;;;7.88;100.00;99362.41;4284028;33;19949;-73
2022/12/25 10:32:41;;;;;;;;;;;;;;;7.62;100.00;99358.13;4284646;33;19948;-74
2022/12/25 10:35:12;;;;;;;;;;;;;;;7.36;100.00;99368.06;4297163;33;19971;-72
2022/12/25 10:37:40;;;;;;;;;;;;;;;7.58;100.00;99352.41;4265815;33;19949;-73
2022/12/25 10:40:25;;;;;;;;;;;;;;;7.50;100.00;99354.53;4266178;33;20362;-73
2022/12/25 10:42:57;;;;;;;;;;;;;;;7.69;100.00;99347.31;4267441;33;20105;-74
2022/12/25 10:45:24;;;;;;;;;;;;;;;8.00;100.00;99355.22;4266076;33;20402;-73
2022/12/25 10:48:01;;;;;;;;;;;;;;;7.58;100.00;99341.69;4266279;33;19962;-73
2022/12/25 10:50:27;;;;;;;;;;;;;;;7.86;100.00;99348.38;4264804;33;19946;-73
2022/12/25 10:52:55;;;;;;;;;;;;;;;7.93;100.00;99338.41;4267606;33;19933;-73
2022/12/25 10:55:22;;;;;;;;;;;;;;;7.93;100.00;99343.78;4267449;33;20000;-74
2022/12/25 10:57:48;;;;;;;;;;;;;;;8.28;100.00;99335.06;4265710;33;20269;-73
2022/12/25 11:00:18;;;;;;;;;;;;;;;8.10;100.00;99345.81;4265378;33;19950;-73
2022/12/25 11:02:44;;;;;;;;;;;;;;;8.18;100.00;99342.84;4238632;33;19992;-73
2022/12/25 11:05:13;;;;;;;;;;;;;;;8.41;100.00;99343.97;4238056;33;19954;-73
2022/12/25 11:07:50;;;;;;;;;;;;;;;7.87;100.00;99355.38;4239480;33;19982;-74
2022/12/25 11:10:19;;;;;;;;;;;;;;;8.26;100.00;99353.25;4267468;33;19972;-73
2022/12/25 11:12:45;;;;;;;;;;;;;;;8.41;100.00;99343.97;4237515;33;20004;-73
2022/12/25 11:15:30;;;;;;;;;;;;;;;8.32;100.00;99330.87;4237437;33;20351;-73
2022/12/25 11:17:56;;;;;;;;;;;;;;;8.04;100.00;99344.03;4223003;34;20223;-73
2022/12/25 11:20:23;;;;;;;;;;;;;;;7.82;100.00;99336.47;4224608;34;20066;-73
2022/12/25 11:22:49;;;;;;;;;;;;;;;7.81;100.00;99337.50;4224451;34;19946;-74
2022/12/25 11:27:59;;;;;;;;;;;;;;;8.12;100.00;99333.00;4222944;34;19958;-73
2022/12/25 11:30:27;;;;;;;;;;;;;;;8.34;100.00;99334.19;4224383;34;19943;-73
2022/12/25 11:32:55;;;;;;;;;;;;;;;8.35;100.00;99335.78;4223788;34;19980;-73
2022/12/25 11:35:24;;;;;;;;;;;;;;;8.34;100.00;99328.81;4222980;33;20357;-73
2022/12/25 11:37:56;;;;;;;;;;;;;;;8.47;100.00;99322.47;4222749;34;20207;-73
2022/12/25 11:40:27;;;;;;;;;;;;;;;7.87;100.00;99322.41;4231846;33;19946;-74
2022/12/25 11:43:07;;;;;;;;;;;;;;;8.19;100.00;99325.69;4240289;33;19946;-72
2022/12/25 11:45:36;;;;;;;;;;;;;;;8.38;100.00;99323.78;4265429;33;19975;-72
2022/12/25 11:48:14;;;;;;;;;;;;;;;8.21;100.00;99323.59;4267732;33;20378;-73
2022/12/25 11:50:46;;;;;;;;;;;;;;;7.96;100.00;99321.88;4283109;33;20350;-73
2022/12/25 11:53:17;;;;;;;;;;;;;;;7.94;100.00;99323.13;4281484;33;19959;-73
2022/12/25 11:55:53;;;;;;;;;;;;;;;8.13;100.00;99315.87;4282987;33;20301;-73
2022/12/25 11:58:23;;;;;;;;;;;;;;;8.19;100.00;99317.66;4283125;33;19945;-74
2022/12/25 12:00:54;;;;;;;;;;;;;;;7.81;100.00;99324.09;4397256;28;20276;-74
2022/12/25 12:03:25;;;;;;;;;;;;;;;8.20;100.00;99322.00;4275189;33;19957;-73
2022/12/25 12:05:54;;;;;;;;;;;;;;;7.89;100.00;99325.66;4281183;33;19947;-73
2022/12/25 12:08:20;;;;;;;;;;;;;;;7.87;100.00;99325.91;4279579;33;19959;-75
2022/12/25 12:10:53;;;;;;;;;;;;;;;8.21;100.00;99328.97;4279910;33;19953;-74
2022/12/25 12:13:19;;;;;;;;;;;;;;;7.93;100.00;99327.69;4278563;33;19955;-74
2022/12/25 12:15:46;;;;;;;;;;;;;;;7.89;100.00;99331.03;4280850;33;20282;-74
2022/12/25 12:18:27;;;;;;;;;;;;;;;7.98;100.00;99338.53;4279968;33;19950;-72
2022/12/25 12:20:56;;;;;;;;;;;;;;;7.81;100.00;99340.19;4279714;33;20375;-73
2022/12/25 12:23:23;;;;;;;;;;;;;;;8.16;100.00;99342.25;4279058;33;20000;-73
2022/12/25 12:25:49;;;;;;;;;;;;;;;7.91;100.00;99335.09;4280572;33;20104;-72
2022/12/25 12:28:24;;;;;;;;;;;;;;;8.13;100.00;99342.69;4280446;33;20331;-73
2022/12/25 12:31:17;;;;;;;;;;;;;;;8.11;100.00;99334.06;4279411;33;19959;-73
2022/12/25 12:33:47;;;;;;;;;;;;;;;8.06;100.00;99336.59;4264414;33;19949;-73
2022/12/25 12:36:14;;;;;;;;;;;;;;;8.07;100.00;99335.56;4268183;33;20353;-73
2022/12/25 12:38:42;;;;;;;;;;;;;;;8.31;100.00;99331.94;4266493;33;19950;-74
2022/12/25 12:41:10;;;;;;;;;;;;;;;8.18;100.00;99334.78;4268463;33;19975;-73
2022/12/25 12:43:38;;;;;;;;;;;;;;;7.90;100.00;99328.13;4267872;33;19960;-72
2022/12/25 12:46:14;;;;;;;;;;;;;;;8.06;100.00;99325.84;4267991;33;20267;-72
2022/12/25 12:48:42;;;;;;;;;;;;;;;8.02;100.00;99322.00;4264222;33;19978;-73
2022/12/25 12:51:10;;;;;;;;;;;;;;;8.37;100.00;99325.63;4268412;33;19957;-72
2022/12/25 12:53:37;;;;;;;;;;;;;;;8.02;100.00;99316.63;4267575;33;19949;-73
2022/12/25 12:56:08;;;;;;;;;;;;;;;7.84;100.00;99323.66;4268180;33;19945;-75
2022/12/25 12:58:36;;;;;;;;;;;;;;;7.61;100.00;99325.16;4266335;33;19963;-72
2022/12/25 13:01:02;;;;;;;;;;;;;;;7.77;100.00;99328.25;4267651;33;20107;-74
2022/12/25 13:03:33;;;;;;;;;;;;;;;7.61;100.00;99325.16;4267613;33;20332;-74
2022/12/25 13:06:07;;;;;;;;;;;;;;;8.02;100.00;99330.06;4267698;33;19949;-74
2022/12/25 13:08:49;;;;;;;;;;;;;;;8.12;100.00;99330.31;4267146;33;19953;-73
2022/12/25 13:11:20;;;;;;;;;;;;;;;8.06;100.00;99326.69;4267422;33;19963;-73
2022/12/25 13:13:48;;;;;;;;;;;;;;;7.99;100.00;99339.34;4265490;33;19949;-74
2022/12/25 13:16:32;;;;;;;;;;;;;;;7.86;100.00;99334.16;4267184;33;20082;-73
2022/12/25 13:19:03;;;;;;;;;;;;;;;7.98;100.00;99330.50;4267173;33;20073;-73
2022/12/25 13:21:30;;;;;;;;;;;;;;;7.88;100.00;99340.94;4267928;33;19946;-73
2022/12/25 13:24:00;;;;;;;;;;;;;;;7.90;100.00;99343.41;4265937;33;19953;-74
2022/12/25 13:26:27;;;;;;;;;;;;;;;7.96;100.00;99335.28;4266919;33;19972;-74
2022/12/25 13:28:54;;;;;;;;;;;;;;;7.97;100.00;99339.56;4267955;33;19946;-73
2022/12/25 13:31:22;;;;;;;;;;;;;;;7.88;100.00;99340.94;4267695;33;19969;-74
2022/12/25 13:34:01;;;;;;;;;;;;;;;7.62;100.00;99337.50;4265267;33;19960;-74
2022/12/25 13:36:29;;;;;;;;;;;;;;;7.49;100.00;99337.66;4267701;33;19950;-74
2022/12/25 13:38:56;;;;;;;;;;;;;;;7.41;100.00;99336.06;4268625;33;19988;-74
2022/12/25 13:44:17;;;;;;;;;;;;;;;7.73;100.00;99351.22;4282019;33;20061;-74
2022/12/25 13:46:43;;;;;;;;;;;;;;;7.92;100.00;99354.72;4281660;33;20017;-74
2022/12/25 13:49:13;;;;;;;;;;;;;;;7.95;100.00;99347.03;4280059;33;19941;-74
2022/12/25 13:51:39;;;;;;;;;;;;;;;7.93;100.00;99357.19;4276636;33;19949;-74
2022/12/25 13:54:07;;;;;;;;;;;;;;;7.81;100.00;99350.91;4279957;33;20557;-73
2022/12/25 13:56:34;;;;;;;;;;;;;;;7.88;100.00;99345.47;4280227;33;20338;-73
2022/12/25 13:59:02;;;;;;;;;;;;;;;7.83;100.00;99343.47;4279873;33;19971;-73
2022/12/25 14:01:28;;;;;;;;;;;;;;;7.52;100.00;99347.94;4281121;33;19988;-74
2022/12/25 14:03:54;;;;;;;;;;;;;;;7.52;100.00;99307.72;4280918;33;19963;-73
2022/12/25 14:06:25;;;;;;;;;;;;;;;7.88;100.00;99335.59;4282425;33;19952;-73
2022/12/25 14:08:53;;;;;;;;;;;;;;;7.54;100.00;99334.31;4282091;33;19955;-73
2022/12/25 14:11:22;;;;;;;;;;;;;;;7.79;100.00;99331.56;4280985;33;19942;-74
2022/12/25 14:13:49;;;;;;;;;;;;;;;7.64;100.00;99335.44;4281101;33;20031;-73
2022/12/25 14:16:17;;;;;;;;;;;;;;;7.32;100.00;99332.03;4282340;33;19949;-73
2022/12/25 14:18:56;;;;;;;;;;;;;;;7.76;100.00;99332.00;4281795;33;19945;-73
2022/12/25 14:21:28;;;;;;;;;;;;;;;7.82;100.00;99331.13;4280301;33;19957;-73
2022/12/25 14:23:55;;;;;;;;;;;;;;;7.90;100.00;99332.69;4284594;33;19971;-73
2022/12/25 14:26:29;;;;;;;;;;;;;;;7.96;100.00;99332.59;4282588;33;20301;-73
2022/12/25 14:29:07;;;;;;;;;;;;;;;7.94;100.00;99340.03;4281591;33;19959;-73
2022/12/25 14:31:35;;;;;;;;;;;;;;;7.84;100.00;99339.75;4283526;33;20188;-72
2022/12/25 14:34:04;;;;;;;;;;;;;;;7.73;100.00;99343.19;4272495;33;19963;-73
2022/12/25 14:36:31;;;;;;;;;;;;;;;7.39;100.00;99348.06;4270083;33;19956;-73
2022/12/25 14:38:58;;;;;;;;;;;;;;;7.30;100.00;99358.22;4268037;33;19998;-73
2022/12/25 14:41:36;;;;;;;;;;;;;;;7.17;100.00;99361.84;4269703;33;20494;-73
2022/12/25 14:44:25;;;;;;;;;;;;;;;7.33;100.00;99365.81;4269518;33;19979;-73
2022/12/25 14:47:01;;;;;;;;;;;;;;;7.31;100.00;99369.75;4269196;33;19942;-72
2022/12/25 14:49:30;;;;;;;;;;;;;;;7.52;100.00;99364.00;4269039;33;19980;-73
2022/12/25 14:51:56;;;;;;;;;;;;;;;6.93;100.00;99354.66;4269110;33;20378;-73
2022/12/25 14:54:24;;;;;;;;;;;;;;;7.07;100.00;99362.34;4268866;33;19941;-73
2022/12/25 14:56:51;;;;;;;;;;;;;;;6.70;100.00;99358.69;4268764;33;19942;-72
2022/12/25 14:59:20;;;;;;;;;;;;;;;6.42;100.00;99354.56;4268964;33;19967;-75
2022/12/25 15:01:51;;;;;;;;;;;;;;;6.84;100.00;99352.22;4268642;33;19999;-74
2022/12/25 15:04:19;;;;;;;;;;;;;;;7.17;100.00;99340.41;4268863;33;20018;-74
2022/12/25 15:06:53;;;;;;;;;;;;;;;6.89;100.00;99343.53;4267759;33;20336;-73
2022/12/25 15:09:19;;;;;;;;;;;;;;;6.84;100.00;99341.50;4269066;33;19960;-74
2022/12/25 15:11:47;;;;;;;;;;;;;;;6.52;100.00;99343.38;4268282;33;19954;-74
2022/12/25 15:14:12;;;;;;;;;;;;;;;7.00;100.00;99344.69;4269126;33;19960;-73
2022/12/25 15:16:41;;;;;;;;;;;;;;;7.17;100.00;99348.47;4267097;33;20370;-74
2022/12/25 15:19:08;;;;;;;;;;;;;;;7.00;100.00;99350.03;4268248;33;20387;-73
2022/12/25 15:21:35;;;;;;;;;;;;;;;6.89;100.00;99360.44;4269305;33;20332;-73
2022/12/25 15:24:02;;;;;;;;;;;;;;;7.17;100.00;99361.84;4267618;33;20370;-74
2022/12/25 15:26:30;;;;;;;;;;;;;;;7.01;100.00;99365.09;4267857;33;19989;-73
2022/12/25 15:28:56;;;;;;;;;;;;;;;7.09;100.00;99370.16;4266344;33;19959;-75
2022/12/25 15:31:27;;;;;;;;;;;;;;;7.05;100.00;99376.97;4268949;33;19972;-73
2022/12/25 15:33:55;;;;;;;;;;;;;;;7.13;100.00;99383.94;4277059;33;19949;-73
2022/12/25 15:36:21;;;;;;;;;;;;;;;7.07;100.00;99377.59;4283497;33;19945;-73
2022/12/25 15:38:47;;;;;;;;;;;;;;;7.01;100.00;99370.44;4282531;33;19953;-74
2022/12/25 15:44:10;;;;;;;;;;;;;;;7.12;100.00;99375.06;4281670;33;20043;-73
2022/12/25 15:46:36;;;;;;;;;;;;;;;6.99;100.00;99375.16;4280734;33;19999;-73
2022/12/25 15:49:02;;;;;;;;;;;;;;;6.80;100.00;99371.62;4282703;33;20172;-75
2022/12/25 15:51:29;;;;;;;;;;;;;;;6.71;100.00;99363.03;4283066;33;19941;-73
2022/12/25 15:53:55;;;;;;;;;;;;;;;6.83;100.00;99368.47;4282207;33;20347;-73
2022/12/25 15:56:22;;;;;;;;;;;;;;;6.84;100.00;99354.88;4283417;33;19963;-74
2022/12/25 15:58:48;;;;;;;;;;;;;;;6.98;100.00;99352.13;4281292;33;20276;-73
2022/12/25 16:01:15;;;;;;;;;;;;;;;6.95;100.00;99357.91;4282763;33;19971;-74
2022/12/25 16:03:41;;;;;;;;;;;;;;;7.11;100.00;99354.69;4282534;33;19962;-74
2022/12/25 16:06:11;;;;;;;;;;;;;;;7.01;100.00;99351.69;4283009;33;19959;-74
2022/12/25 16:08:37;;;;;;;;;;;;;;;6.84;100.00;99362.91;4282786;33;19959;-74
2022/12/25 16:11:03;;;;;;;;;;;;;;;7.01;100.00;99357.06;4281720;33;19941;-73
2022/12/25 16:13:29;;;;;;;;;;;;;;;6.98;100.00;99346.78;4282367;33;19967;-74
2022/12/25 16:15:56;;;;;;;;;;;;;;;6.68;100.00;99363.44;4282813;33;19979;-73
2022/12/25 16:18:22;;;;;;;;;;;;;;;6.59;100.00;99351.34;4282296;33;19963;-74
2022/12/25 16:20:53;;;;;;;;;;;;;;;6.64;100.00;99340.84;4282576;33;19981;-74
2022/12/25 16:23:19;;;;;;;;;;;;;;;6.53;100.00;99335.12;4281574;33;19980;-73
2022/12/25 16:25:46;;;;;;;;;;;;;;;6.70;100.00;99339.97;4282951;33;19945;-74
2022/12/25 16:28:12;;;;;;;;;;;;;;;6.89;100.00;99330.97;4282845;33;20317;-74